Time;durP1;ratioP1;P1;durP2;ratioP2;P2;SDS_P1;SDS_P2;PMS_P1;PMS_P2;Temp;Humidity;BMP_temperature;BMP_pressure;BME280_temperature;BME280_humidity;BME280_pressure;Samples;Min_cycle;Max_cycle;Signal;HPM_P1;HPM_P2
2022/03/22 08:47:06;;;;;;;;;29.25;24.00;;;;;12.09;39.70;102530.38;5069993;28;45876;-69
2022/03/22 08:49:35;;;;;;;;;29.00;23.50;;;;;12.41;38.74;102526.72;5053104;28;45433;-68
2022/03/22 08:52:00;;;;;;;;;23.00;20.75;;;;;12.77;36.82;102523.19;5051979;28;45507;-70
2022/03/22 08:54:27;;;;;;;;;25.75;20.25;;;;;13.12;34.95;102535.31;5053413;28;45377;-69
2022/03/22 08:56:53;;;;;;;;;36.50;26.25;;;;;13.33;34.70;102528.72;5052178;28;45432;-69
2022/03/22 08:59:18;;;;;;;;;27.75;20.50;;;;;13.58;33.56;102528.31;5053283;28;45398;-70
2022/03/22 09:01:45;;;;;;;;;26.25;22.25;;;;;13.82;33.72;102523.47;5053265;28;45422;-70
2022/03/22 09:06:55;;;;;;;;;25.00;22.25;;;;;14.26;29.92;102523.28;5052586;28;45915;-69
2022/03/22 09:09:21;;;;;;;;;20.50;16.25;;;;;14.45;29.45;102532.34;5053001;28;45584;-69
2022/03/22 09:11:49;;;;;;;;;22.00;17.50;;;;;14.61;28.39;102545.81;5052717;28;45499;-70
2022/03/22 09:14:15;;;;;;;;;17.50;16.00;;;;;14.62;27.28;102541.44;5047422;28;45658;-69
2022/03/22 09:16:41;;;;;;;;;21.75;18.25;;;;;14.70;26.66;102547.69;5032664;28;45379;-70
2022/03/22 09:19:06;;;;;;;;;20.00;18.25;;;;;14.66;26.93;102527.41;5032739;28;45497;-70
2022/03/22 09:21:32;;;;;;;;;16.50;16.50;;;;;14.83;27.71;102527.66;5031539;28;45365;-69
2022/03/22 09:23:57;;;;;;;;;20.75;17.25;;;;;15.03;27.79;102539.34;5033016;28;45465;-69
2022/03/22 09:26:32;;;;;;;;;19.00;16.00;;;;;15.23;27.63;102550.16;5045693;28;45409;-68
2022/03/22 09:29:04;;;;;;;;;19.00;16.50;;;;;15.26;27.76;102522.91;5049601;28;45535;-69
2022/03/22 09:31:30;;;;;;;;;20.50;18.00;;;;;15.50;27.63;102542.50;5051155;28;45704;-69
2022/03/22 09:33:57;;;;;;;;;21.50;18.50;;;;;15.53;28.13;102527.56;5051028;28;45918;-70
2022/03/22 09:36:23;;;;;;;;;21.50;20.00;;;;;15.56;28.39;102534.63;5051652;28;45498;-70
2022/03/22 09:38:48;;;;;;;;;19.00;16.25;;;;;15.71;28.46;102537.47;5052421;28;45485;-69
2022/03/22 09:41:15;;;;;;;;;24.25;19.25;;;;;15.82;27.20;102541.09;5052307;28;45347;-68
2022/03/22 09:43:51;;;;;;;;;23.75;22.25;;;;;15.88;26.39;102537.63;5053205;28;45461;-70
2022/03/22 09:46:22;;;;;;;;;25.00;20.25;;;;;15.94;25.77;102547.34;5065079;28;45402;-69
2022/03/22 09:48:48;;;;;;;;;17.50;15.50;;;;;15.96;25.85;102538.56;5072527;28;45450;-69
2022/03/22 09:54:03;;;;;;;;;20.00;18.75;;;;;16.04;25.99;102535.97;5072779;28;45525;-69
2022/03/22 09:56:31;;;;;;;;;23.25;16.75;;;;;16.23;25.99;102534.34;5069221;28;45454;-69
2022/03/22 09:59:03;;;;;;;;;24.75;19.25;;;;;16.29;25.87;102527.38;5059131;28;45926;-69
2022/03/22 10:01:29;;;;;;;;;20.25;19.00;;;;;16.32;24.87;102543.28;5059187;28;45427;-69
2022/03/22 10:04:05;;;;;;;;;23.50;18.50;;;;;16.33;25.03;102530.94;5059540;28;45580;-69
2022/03/22 10:06:38;;;;;;;;;21.00;18.75;;;;;16.38;24.70;102510.69;5058698;28;45387;-69
2022/03/22 10:09:08;;;;;;;;;22.75;22.25;;;;;16.49;24.46;102526.59;5040204;28;45495;-69
2022/03/22 10:11:49;;;;;;;;;19.50;18.00;;;;;16.53;24.74;102521.34;5040781;28;45350;-70
2022/03/22 10:14:15;;;;;;;;;20.75;20.25;;;;;16.65;24.99;102509.94;5059139;28;45449;-69
2022/03/22 10:16:51;;;;;;;;;22.00;18.50;;;;;16.86;24.88;102518.91;5040572;28;48347;-70
2022/03/22 10:19:23;;;;;;;;;18.67;15.00;;;;;17.02;24.54;102522.50;5058436;28;45562;-70
2022/03/22 10:21:49;;;;;;;;;18.50;17.75;;;;;17.18;24.55;102521.69;5058950;28;45235;-69
2022/03/22 10:24:17;;;;;;;;;24.33;18.67;;;;;17.34;24.34;102517.28;5058554;28;45330;-69
2022/03/22 10:26:46;;;;;;;;;18.33;17.33;;;;;17.43;24.21;102505.84;5058683;28;45359;-70
2022/03/22 10:29:15;;;;;;;;;25.00;21.75;;;;;17.52;24.19;102519.97;5058371;28;45431;-69
2022/03/22 10:31:42;;;;;;;;;24.00;18.33;;;;;17.54;23.86;102512.03;5057574;28;45358;-69
2022/03/22 10:34:10;;;;;;;;;25.67;19.33;;;;;17.56;23.88;102505.84;5059066;28;45457;-69
2022/03/22 10:36:37;;;;;;;;;22.33;18.67;;;;;17.72;24.18;102508.50;5058056;28;46049;-70
2022/03/22 10:39:09;;;;;;;;;19.33;17.67;;;;;17.81;24.10;102513.84;5058349;28;45521;-69
2022/03/22 10:41:42;;;;;;;;;18.67;17.67;;;;;17.94;24.13;102506.78;5058396;28;45663;-69
2022/03/22 10:44:14;;;;;;;;;21.67;17.67;;;;;18.00;24.19;102502.34;5058778;28;46026;-71
2022/03/22 10:46:42;;;;;;;;;24.67;19.67;;;;;18.08;23.57;102493.50;5039931;28;46702;-69
2022/03/22 10:49:17;;;;;;;;;19.00;18.67;;;;;18.18;22.74;102488.19;5040494;28;45398;-71
2022/03/22 10:51:47;;;;;;;;;19.67;18.67;;;;;18.15;23.10;102485.56;5040227;28;45446;-70
2022/03/22 10:54:19;;;;;;;;;21.50;19.00;;;;;18.12;22.67;102493.50;5059621;28;45330;-70
2022/03/22 10:56:56;;;;;;;;;21.67;20.33;;;;;18.01;22.66;102474.97;5057952;28;46616;-69
2022/03/22 10:59:24;;;;;;;;;19.33;19.00;;;;;18.22;22.90;102489.06;5058324;28;45331;-69
2022/03/22 11:01:56;;;;;;;;;18.00;17.67;;;;;18.26;23.25;102452.81;5058477;28;45493;-70
2022/03/22 11:04:23;;;;;;;;;22.33;20.00;;;;;18.53;22.87;102486.34;5057290;28;45509;-71
2022/03/22 11:06:49;;;;;;;;;18.33;16.00;;;;;18.55;22.91;102477.47;5058081;28;46608;-69
2022/03/22 11:09:24;;;;;;;;;18.33;16.67;;;;;18.80;22.90;102480.97;5058519;28;45365;-70
2022/03/22 11:11:50;;;;;;;;;23.00;20.00;;;;;18.99;22.85;102479.09;5059814;28;45448;-71
2022/03/22 11:14:17;;;;;;;;;25.33;22.00;;;;;19.16;21.13;102481.66;5041616;28;45633;-70
2022/03/22 11:16:47;;;;;;;;;21.67;18.00;;;;;19.25;21.38;102470.09;5059811;28;45394;-70
2022/03/22 11:19:15;;;;;;;;;23.00;20.33;;;;;19.48;21.39;102470.81;5060358;28;45554;-70
2022/03/22 11:21:41;;;;;;;;;19.00;17.67;;;;;19.70;20.85;102460.06;5059432;28;45382;-70
2022/03/22 11:24:10;;;;;;;;;25.67;21.33;;;;;19.83;21.11;102453.72;5061924;28;45350;-69
2022/03/22 11:26:45;;;;;;;;;23.67;22.00;;;;;20.00;20.80;102461.53;5061735;28;46067;-70
2022/03/22 11:29:17;;;;;;;;;22.00;18.33;;;;;20.09;20.30;102465.88;5057282;28;45437;-71
2022/03/22 11:34:09;;;;;;;;;24.67;18.67;;;;;20.33;20.72;102460.31;5055638;28;45418;-70
2022/03/22 11:34:33;;;;;;;;;20.33;17.33;;;;;20.50;20.83;102460.13;5059810;28;45319;-69
2022/03/22 11:37:00;;;;;;;;;25.00;23.00;;;;;20.70;21.54;102459.00;5057810;28;45473;-69
2022/03/22 11:42:24;;;;;;;;;27.67;26.00;;;;;20.86;21.24;102420.63;5059396;28;45490;-69
2022/03/22 11:44:59;;;;;;;;;23.00;20.67;;;;;20.92;21.59;102433.84;5059415;28;45438;-69
2022/03/22 11:47:25;;;;;;;;;20.67;19.67;;;;;21.18;21.85;102436.13;5059461;28;45527;-69
2022/03/22 11:49:57;;;;;;;;;25.67;21.67;;;;;21.38;21.82;102435.81;5041576;28;45358;-69
2022/03/22 11:52:35;;;;;;;;;31.00;21.33;;;;;21.68;21.32;102440.69;5059833;28;45375;-69
2022/03/22 11:55:09;;;;;;;;;27.00;24.33;;;;;21.47;21.04;102442.81;5061217;28;45540;-68
2022/03/22 11:57:51;;;;;;;;;19.00;19.00;;;;;21.53;21.63;102436.50;5061537;28;45415;-69
2022/03/22 12:00:43;;;;;;;;;20.33;20.33;;;;;21.71;21.11;102432.63;5040053;28;45493;-69
2022/03/22 12:03:10;;;;;;;;;28.00;24.33;;;;;21.66;21.55;102423.84;5039146;28;45480;-69
2022/03/22 12:05:37;;;;;;;;;23.00;21.67;;;;;21.64;21.35;102405.22;5039312;28;45502;-70
2022/03/22 12:08:09;;;;;;;;;27.00;25.67;;;;;21.77;21.61;102421.88;5038388;28;46194;-72
2022/03/22 12:10:35;;;;;;;;;28.00;24.00;;;;;21.78;21.59;102424.50;5057307;28;45545;-69
2022/03/22 12:13:02;;;;;;;;;109.67;99.67;;;;;21.93;23.30;102415.34;5057158;28;45499;-69
2022/03/22 12:15:29;;;;;;;;;85.25;79.25;;;;;22.15;22.17;102394.44;5057337;28;45307;-69
2022/03/22 12:17:56;;;;;;;;;100.75;91.00;;;;;22.52;21.95;102406.19;5057014;28;46636;-69
2022/03/22 12:20:23;;;;;;;;;23.00;23.00;;;;;22.57;20.75;102405.19;5056035;28;45249;-69
2022/03/22 12:23:03;;;;;;;;;26.33;23.67;;;;;22.67;21.12;102410.31;5057655;28;45457;-70
2022/03/22 12:25:32;;;;;;;;;28.33;24.33;;;;;22.71;20.50;102410.22;5059309;28;45330;-70
2022/03/22 12:28:09;;;;;;;;;28.00;20.67;;;;;22.52;21.12;102384.81;5057594;28;45371;-70
2022/03/22 12:30:38;;;;;;;;;23.00;20.33;;;;;22.65;20.62;102375.63;5056914;28;45525;-69
2022/03/22 12:33:11;;;;;;;;;24.67;20.67;;;;;22.71;20.43;102396.88;5057697;28;45548;-69
2022/03/22 12:35:37;;;;;;;;;29.33;21.67;;;;;22.65;20.76;102386.31;5057632;28;45387;-70
2022/03/22 12:38:04;;;;;;;;;21.67;20.33;;;;;22.59;20.85;102378.44;5039901;28;46659;-68
2022/03/22 12:40:30;;;;;;;;;21.33;19.00;;;;;22.43;20.78;102389.47;5057519;28;45391;-70
2022/03/22 12:42:57;;;;;;;;;23.00;20.33;;;;;22.17;20.99;102365.94;5058376;28;45604;-70
2022/03/22 12:45:25;;;;;;;;;27.67;18.33;;;;;22.15;20.84;102386.44;5058620;28;45470;-70
2022/03/22 12:47:52;;;;;;;;;24.67;23.33;;;;;21.89;20.95;102364.75;5058990;28;45718;-72
2022/03/22 12:50:20;;;;;;;;;26.00;20.33;;;;;21.92;21.06;102376.22;5059228;28;45406;-69
2022/03/22 12:52:46;;;;;;;;;26.67;21.67;;;;;21.97;21.49;102371.69;5059595;28;45485;-71
2022/03/22 12:55:14;;;;;;;;;24.33;22.00;;;;;22.02;21.46;102375.16;5057636;28;45651;-69
2022/03/22 12:57:41;;;;;;;;;27.33;24.67;;;;;21.81;21.16;102356.91;5057006;28;46185;-69
2022/03/22 13:00:08;;;;;;;;;24.33;24.00;;;;;21.48;21.67;102359.28;5056562;28;45403;-68
2022/03/22 13:02:38;;;;;;;;;24.00;21.00;;;;;21.38;22.13;102347.88;5056887;28;45297;-69
2022/03/22 13:05:05;;;;;;;;;23.33;23.33;;;;;21.22;21.79;102354.38;5056736;28;45336;-69
2022/03/22 13:07:31;;;;;;;;;21.33;20.00;;;;;20.95;22.11;102327.28;5056224;28;45695;-67
2022/03/22 13:12:43;;;;;;;;;26.00;22.33;;;;;20.72;22.58;102329.41;5056957;28;45382;-67
2022/03/22 13:15:13;;;;;;;;;24.00;22.00;;;;;20.80;22.77;102335.50;5039057;28;45537;-69
2022/03/22 13:17:43;;;;;;;;;22.33;20.67;;;;;20.80;22.68;102321.31;5060765;28;46685;-69
2022/03/22 13:20:24;;;;;;;;;26.33;23.67;;;;;20.59;22.90;102288.75;5040595;28;45478;-69
2022/03/22 13:22:55;;;;;;;;;23.33;18.00;;;;;20.87;23.23;102323.84;5057021;28;44800;-70
2022/03/22 13:25:36;;;;;;;;;29.33;25.00;;;;;20.72;23.16;102277.03;5056262;28;45335;-70
2022/03/22 13:28:10;;;;;;;;;25.67;22.67;;;;;20.96;23.23;102320.16;5055863;28;45432;-71
2022/03/22 13:30:39;;;;;;;;;26.00;25.67;;;;;20.92;23.46;102313.13;5056422;28;45339;-70
2022/03/22 13:33:10;;;;;;;;;27.00;25.00;;;;;20.92;23.59;102311.31;5058757;28;45307;-68
2022/03/22 13:35:37;;;;;;;;;25.33;23.67;;;;;20.73;23.79;102304.53;5060197;28;45370;-70
2022/03/22 13:38:08;;;;;;;;;27.67;24.67;;;;;20.72;23.91;102306.31;5059727;28;46118;-71
2022/03/22 13:40:37;;;;;;;;;23.67;22.00;;;;;20.64;24.06;102305.53;5059577;28;45391;-70
2022/03/22 13:43:08;;;;;;;;;26.33;23.33;;;;;20.58;24.28;102292.34;5041643;28;45460;-70
2022/03/22 13:45:35;;;;;;;;;19.33;14.67;;;;;20.68;24.03;102312.59;5059512;28;45492;-70
2022/03/22 13:48:13;;;;;;;;;24.67;20.00;;;;;20.63;24.08;102286.94;5059396;28;46549;-69
2022/03/22 13:50:40;;;;;;;;;19.67;19.67;;;;;20.63;24.17;102289.63;5041283;28;45408;-69
2022/03/22 13:53:12;;;;;;;;;29.67;25.00;;;;;20.64;23.96;102284.25;5059498;28;45382;-71
2022/03/22 13:56:00;;;;;;;;;26.33;24.67;;;;;20.70;24.07;102284.16;5059713;28;45461;-70
2022/03/22 13:58:34;;;;;;;;;26.33;19.67;;;;;20.75;24.54;102289.41;5058304;28;45704;-69
2022/03/22 14:01:00;;;;;;;;;28.00;25.67;;;;;20.72;24.14;102295.69;5059307;28;45323;-69
2022/03/22 14:03:26;;;;;;;;;23.33;21.67;;;;;20.61;23.84;102284.31;5059527;28;45835;-72
2022/03/22 14:05:52;;;;;;;;;25.33;25.00;;;;;20.61;23.87;102283.44;5059385;28;45408;-71
2022/03/22 14:08:21;;;;;;;;;23.33;22.33;;;;;20.49;23.98;102263.16;5059304;28;46592;-69
2022/03/22 14:10:51;;;;;;;;;25.00;22.67;;;;;20.57;23.75;102295.88;5059103;28;45405;-70
2022/03/22 14:13:20;;;;;;;;;30.00;25.33;;;;;20.49;23.40;102284.47;5059074;28;45562;-70
2022/03/22 14:15:46;;;;;;;;;23.33;19.67;;;;;20.58;23.45;102270.19;5059028;28;45484;-71
2022/03/22 14:18:12;;;;;;;;;27.67;24.00;;;;;20.58;23.92;102260.41;5058602;28;46220;-69
2022/03/22 14:20:38;;;;;;;;;23.33;20.00;;;;;20.63;23.96;102257.66;5059139;28;45747;-72
2022/03/22 14:23:11;;;;;;;;;27.00;20.67;;;;;20.52;23.61;102234.75;5059164;28;45486;-71
2022/03/22 14:25:37;;;;;;;;;30.33;26.00;;;;;20.73;23.66;102254.81;5040778;28;45441;-71
2022/03/22 14:28:05;;;;;;;;;26.33;22.00;;;;;20.78;23.72;102248.56;5058279;28;45453;-69
2022/03/22 14:30:33;;;;;;;;;32.67;24.33;;;;;20.79;23.39;102261.84;5058729;28;45725;-71
2022/03/22 14:33:06;;;;;;;;;27.33;22.33;;;;;20.61;23.41;102247.03;5059495;28;45519;-70
2022/03/22 14:35:50;;;;;;;;;23.33;19.67;;;;;20.37;23.64;102195.03;5059272;28;45522;-71
2022/03/22 14:38:20;;;;;;;;;27.00;25.67;;;;;20.67;23.72;102268.25;5058947;28;45466;-70
2022/03/22 14:40:47;;;;;;;;;26.33;24.33;;;;;20.65;23.48;102256.75;5058639;28;45464;-70
2022/03/22 14:43:13;;;;;;;;;23.67;20.00;;;;;20.53;23.58;102236.47;5058716;28;45482;-70
2022/03/22 14:45:47;;;;;;;;;25.00;21.67;;;;;20.63;22.76;102244.34;5058913;28;45383;-69
2022/03/22 14:48:14;;;;;;;;;30.00;23.67;;;;;20.54;22.42;102248.88;5025293;28;47749;-70
2022/03/22 14:50:40;;;;;;;;;23.33;20.33;;;;;20.50;22.57;102246.28;5058733;28;45640;-69
2022/03/22 14:58:47;;;;;;;;;24.67;23.00;;;;;20.36;23.57;102258.91;5058553;28;45356;-69
2022/03/22 14:58:54;;;;;;;;;27.00;25.00;;;;;20.28;23.65;102254.59;5058058;28;45912;-70
2022/03/22 15:01:22;;;;;;;;;26.00;23.67;;;;;20.18;23.63;102241.44;5057971;28;45371;-70
2022/03/22 15:03:48;;;;;;;;;29.33;23.33;;;;;20.13;23.70;102236.19;5058061;28;45376;-70
2022/03/22 15:06:14;;;;;;;;;26.00;24.67;;;;;20.11;23.92;102228.22;5058496;28;45537;-68
2022/03/22 15:08:41;;;;;;;;;27.67;25.33;;;;;20.14;23.96;102240.59;5058236;28;46068;-71
2022/03/22 15:11:07;;;;;;;;;28.67;26.67;;;;;19.88;24.06;102204.63;5057570;28;45399;-71
2022/03/22 15:13:33;;;;;;;;;28.67;23.67;;;;;19.98;24.17;102242.63;5058088;28;45485;-69
2022/03/22 15:15:59;;;;;;;;;23.33;23.33;;;;;20.01;24.17;102252.31;5058385;28;45489;-70
2022/03/22 15:18:25;;;;;;;;;24.33;23.00;;;;;19.93;23.94;102244.44;5057791;28;45530;-70
2022/03/22 15:20:51;;;;;;;;;30.33;26.00;;;;;19.83;24.08;102254.31;5057851;28;45347;-71
2022/03/22 15:23:17;;;;;;;;;32.67;25.00;;;;;19.68;24.51;102233.25;5040023;28;45533;-72
2022/03/22 15:25:46;;;;;;;;;27.00;24.33;;;;;19.66;24.19;102233.22;5058375;28;45413;-68
2022/03/22 15:28:15;;;;;;;;;33.00;25.67;;;;;19.55;24.25;102229.81;5057736;28;45469;-70
2022/03/22 15:30:42;;;;;;;;;23.33;21.67;;;;;19.51;24.43;102227.22;5057810;28;45553;-70
2022/03/22 15:33:07;;;;;;;;;25.67;22.67;;;;;19.41;24.60;102213.13;5057221;28;45375;-69
2022/03/22 15:35:34;;;;;;;;;30.00;25.33;;;;;19.41;24.46;102224.66;5057465;28;45261;-69
2022/03/22 15:38:01;;;;;;;;;25.67;23.67;;;;;19.32;24.54;102216.78;5057277;28;45560;-69
2022/03/22 15:40:28;;;;;;;;;25.00;23.33;;;;;19.28;24.56;102218.56;5057281;28;45422;-70
2022/03/22 15:42:54;;;;;;;;;22.67;18.33;;;;;19.19;24.58;102220.47;5057258;28;45319;-68
2022/03/22 15:45:19;;;;;;;;;30.67;26.33;;;;;19.14;24.50;102217.84;5057095;28;45500;-70
2022/03/22 15:47:45;;;;;;;;;33.67;26.00;;;;;18.98;24.89;102195.00;5057062;28;45325;-71
2022/03/22 15:50:13;;;;;;;;;27.00;25.00;;;;;18.99;25.07;102212.69;5057045;28;45407;-71
2022/03/22 15:52:39;;;;;;;;;26.67;22.33;;;;;18.86;25.27;102198.63;5056988;28;45292;-71
2022/03/22 15:55:07;;;;;;;;;25.25;23.00;;;;;18.57;25.65;102151.97;5056743;28;45335;-70
2022/03/22 15:57:33;;;;;;;;;29.33;24.67;;;;;18.80;25.78;102191.63;5057085;28;46105;-71
2022/03/22 15:59:59;;;;;;;;;24.33;23.33;;;;;18.91;25.88;102201.25;5056823;28;45333;-70
2022/03/22 16:02:26;;;;;;;;;29.67;26.33;;;;;18.85;26.13;102195.13;5056707;28;45587;-71
2022/03/22 16:04:52;;;;;;;;;31.50;29.75;;;;;18.88;26.38;102207.47;5057153;28;45350;-71
2022/03/22 16:07:18;;;;;;;;;32.67;28.00;;;;;18.87;26.54;102203.06;5057058;28;46429;-69
2022/03/22 16:09:44;;;;;;;;;26.50;26.00;;;;;18.83;26.63;102203.97;5057317;28;45295;-70
2022/03/22 16:12:10;;;;;;;;;29.33;26.00;;;;;18.75;27.05;102198.72;5057263;28;45509;-67
2022/03/22 16:14:36;;;;;;;;;29.67;26.33;;;;;18.79;27.15;102215.50;5057558;28;45372;-69
2022/03/22 16:17:06;;;;;;;;;25.67;21.33;;;;;18.71;26.81;102196.09;5056896;28;46068;-70
2022/03/22 16:19:37;;;;;;;;;27.00;24.00;;;;;18.76;26.93;102212.88;5056928;28;45418;-71
2022/03/22 16:22:03;;;;;;;;;26.33;24.00;;;;;18.65;26.71;102200.56;5057125;28;45565;-71
2022/03/22 16:24:29;;;;;;;;;31.75;28.75;;;;;18.61;26.79;102206.78;5057161;28;45485;-73
2022/03/22 16:26:54;;;;;;;;;29.67;24.00;;;;;18.65;26.60;102216.50;5056890;28;46446;-68
2022/03/22 16:29:20;;;;;;;;;32.00;28.00;;;;;18.49;26.64;102204.25;5056762;28;45470;-70
2022/03/22 16:31:52;;;;;;;;;23.67;20.67;;;;;18.54;27.45;102215.69;5057608;28;45363;-70
2022/03/22 16:37:07;;;;;;;;;31.67;24.67;;;;;18.44;27.68;102206.06;5037217;28;45285;-70
2022/03/22 16:39:36;;;;;;;;;37.50;28.25;;;;;18.47;28.21;102216.63;5036529;28;45439;-70
2022/03/22 16:42:09;;;;;;;;;29.25;27.75;;;;;18.44;27.99;102222.84;5036575;28;45419;-69
2022/03/22 16:44:47;;;;;;;;;30.50;27.50;;;;;18.32;28.35;102212.31;5042355;28;45503;-72
2022/03/22 16:47:15;;;;;;;;;26.75;26.25;;;;;18.36;28.36;102227.31;5051525;28;46028;-68
2022/03/22 16:49:48;;;;;;;;;30.67;25.33;;;;;18.22;28.65;102205.28;5054325;28;45569;-67
2022/03/22 16:52:15;;;;;;;;;30.75;27.00;;;;;18.30;28.48;102232.66;5053408;28;45341;-68
2022/03/22 16:54:41;;;;;;;;;28.75;24.75;;;;;18.28;28.62;102223.84;5054300;28;45880;-72
2022/03/22 16:57:07;;;;;;;;;32.33;26.33;;;;;18.28;28.16;102244.19;5047179;28;46753;-71
2022/03/22 16:59:34;;;;;;;;;28.33;24.33;;;;;18.18;28.28;102222.13;5055806;28;45472;-71
2022/03/22 17:02:00;;;;;;;;;30.00;26.50;;;;;18.19;28.39;102219.44;5054852;28;45499;-71
2022/03/22 17:04:26;;;;;;;;;24.00;19.50;;;;;18.06;28.26;102204.53;5053881;28;45530;-72
2022/03/22 17:06:54;;;;;;;;;30.25;26.50;;;;;18.12;28.36;102227.47;5054228;28;45993;-70
2022/03/22 17:09:20;;;;;;;;;30.75;26.25;;;;;18.13;28.42;102232.78;5057226;28;45530;-71
2022/03/22 17:11:45;;;;;;;;;37.50;31.00;;;;;18.11;28.28;102229.25;5057948;28;45422;-70
2022/03/22 17:14:12;;;;;;;;;32.75;28.75;;;;;18.12;28.60;102232.75;5057176;28;45411;-69
2022/03/22 17:16:39;;;;;;;;;32.50;28.75;;;;;18.04;28.06;102226.63;5040359;28;46715;-70
2022/03/22 17:19:07;;;;;;;;;32.25;27.75;;;;;17.76;28.35;102186.97;5037294;28;45500;-73
2022/03/22 17:21:37;;;;;;;;;35.50;28.25;;;;;17.98;28.61;102236.34;5039504;28;45354;-73
2022/03/22 17:24:05;;;;;;;;;31.25;26.50;;;;;17.90;28.45;102221.41;5058110;28;45391;-73
2022/03/22 17:26:31;;;;;;;;;33.00;24.75;;;;;17.85;28.71;102215.25;5056857;28;45419;-71
2022/03/22 17:28:58;;;;;;;;;29.75;26.75;;;;;17.87;29.08;102226.69;5039653;28;46000;-71
2022/03/22 17:31:25;;;;;;;;;33.25;29.50;;;;;17.96;29.01;102238.16;5038747;28;45382;-71
2022/03/22 17:33:52;;;;;;;;;36.75;29.75;;;;;17.88;29.39;102224.03;5059689;28;46057;-73
2022/03/22 17:36:20;;;;;;;;;24.00;20.00;;;;;17.93;29.21;102237.28;5057601;28;45429;-72
2022/03/22 17:38:46;;;;;;;;;213.75;195.50;;;;;18.00;30.60;102247.84;5058903;28;45411;-68
2022/03/22 17:41:13;;;;;;;;;96.33;85.67;;;;;17.92;29.79;102222.28;5039035;28;45529;-68
2022/03/22 17:43:39;;;;;;;;;52.00;40.50;;;;;18.04;29.52;102238.13;5057706;28;45509;-67
2022/03/22 17:46:06;;;;;;;;;42.50;33.25;;;;;17.99;29.86;102250.53;5057064;28;45724;-68
2022/03/22 17:48:34;;;;;;;;;33.50;25.75;;;;;17.96;30.08;102253.16;5040277;28;45639;-68
2022/03/22 17:51:01;;;;;;;;;47.50;37.50;;;;;17.94;30.07;102253.19;5028092;28;45511;-69
2022/03/22 17:53:27;;;;;;;;;42.25;34.50;;;;;17.91;30.12;102255.84;5037177;28;45508;-69
2022/03/22 17:56:00;;;;;;;;;43.00;32.50;;;;;17.88;30.27;102257.63;5057318;28;46175;-71
2022/03/22 17:58:27;;;;;;;;;42.25;35.50;;;;;17.87;30.45;102253.19;5057137;28;45445;-71
2022/03/22 18:00:54;;;;;;;;;46.25;34.50;;;;;17.81;30.42;102246.16;5057220;28;45473;-72
2022/03/22 18:03:21;;;;;;;;;45.50;36.75;;;;;17.77;30.63;102247.94;5028703;28;45479;-73
2022/03/22 18:05:49;;;;;;;;;44.50;35.75;;;;;17.56;30.95;102213.56;5038612;28;45390;-74
2022/03/22 18:08:21;;;;;;;;;48.00;37.75;;;;;17.81;30.80;102270.03;5056622;28;45304;-74
2022/03/22 18:10:48;;;;;;;;;49.25;38.75;;;;;17.78;30.93;102270.00;5026702;28;45463;-71
2022/03/22 18:13:16;;;;;;;;;44.00;35.25;;;;;17.78;30.83;102273.53;5030560;28;46475;-74
2022/03/22 18:15:42;;;;;;;;;43.75;37.75;;;;;17.77;31.24;102274.44;5033117;28;45624;-72
2022/03/22 18:18:08;;;;;;;;;46.50;35.00;;;;;17.75;31.22;102278.84;5036460;28;45823;-73
2022/03/22 18:20:34;;;;;;;;;42.75;36.00;;;;;17.77;31.09;102270.88;5055573;28;45513;-72
2022/03/22 18:23:04;;;;;;;;;50.25;39.25;;;;;17.75;31.18;102276.19;5057272;28;45539;-74
2022/03/22 18:25:29;;;;;;;;;41.75;34.75;;;;;17.75;31.29;102262.94;5055845;28;45788;-72
2022/03/22 18:27:56;;;;;;;;;44.75;37.00;;;;;17.55;31.68;102248.88;5039819;28;45495;-75
2022/03/22 18:30:28;;;;;;;;;44.75;35.50;;;;;17.73;31.34;102274.44;5052605;28;45506;-76
2022/03/22 18:32:59;;;;;;;;;47.50;38.00;;;;;17.70;31.33;102278.00;5034713;28;45623;-73
2022/03/22 18:35:31;;;;;;;;;48.25;39.75;;;;;17.59;31.50;102269.19;5055356;28;46375;-75
2022/03/22 18:37:56;;;;;;;;;48.75;39.50;;;;;17.63;31.66;102280.63;5050329;28;45490;-75
2022/03/22 18:40:22;;;;;;;;;45.00;36.75;;;;;17.58;31.72;102286.84;5043509;28;45517;-74
2022/03/22 18:42:50;;;;;;;;;50.75;37.75;;;;;17.55;31.66;102272.72;5049891;28;45646;-73
2022/03/22 18:45:16;;;;;;;;;49.50;39.00;;;;;17.56;31.80;102293.03;5048968;28;46257;-73
2022/03/22 18:47:43;;;;;;;;;45.00;37.00;;;;;17.52;31.85;102284.19;5057241;28;45827;-77
2022/03/22 18:50:10;;;;;;;;;42.25;35.50;;;;;17.29;32.08;102252.44;5039247;28;46587;-71
2022/03/22 18:52:36;;;;;;;;;48.75;37.50;;;;;17.09;32.12;102223.38;5055694;28;45579;-73
2022/03/22 18:55:02;;;;;;;;;46.75;38.25;;;;;16.98;32.06;102211.03;5055780;28;46226;-74
2022/03/22 18:57:28;;;;;;;;;54.50;40.75;;;;;17.26;32.32;102268.34;5035236;28;45552;-74
2022/03/22 18:59:54;;;;;;;;;57.75;40.50;;;;;17.34;32.39;102295.69;5035202;28;45536;-75
2022/03/22 19:02:19;;;;;;;;;54.50;42.50;;;;;17.30;32.43;102304.56;5053512;28;45691;-71
2022/03/22 19:04:45;;;;;;;;;50.25;39.75;;;;;17.29;32.63;102296.59;5042405;28;48004;-73
2022/03/22 19:07:11;;;;;;;;;52.50;40.75;;;;;17.07;32.49;102263.97;5056473;28;45451;-73
2022/03/22 19:09:37;;;;;;;;;52.00;41.50;;;;;17.12;32.64;102278.09;5039404;28;45357;-75
2022/03/22 19:12:04;;;;;;;;;52.25;39.50;;;;;17.21;32.66;102296.63;5037997;28;45541;-74
2022/03/22 19:14:29;;;;;;;;;53.75;40.25;;;;;17.22;32.71;102316.03;5038602;28;46117;-74
2022/03/22 19:19:42;;;;;;;;;54.25;41.00;;;;;17.09;33.00;102305.44;5041447;28;45487;-72
2022/03/22 19:22:08;;;;;;;;;47.00;36.00;;;;;16.86;32.94;102275.44;5037771;28;45394;-75
2022/03/22 19:24:34;;;;;;;;;58.00;42.50;;;;;16.99;33.19;102302.78;5046821;28;46461;-74
2022/03/22 19:27:02;;;;;;;;;40.75;34.50;;;;;17.01;32.98;102314.25;5047499;28;45488;-75
2022/03/22 19:29:28;;;;;;;;;47.75;38.25;;;;;16.99;33.15;102316.00;5040098;28;45760;-71
2022/03/22 19:34:41;;;;;;;;;47.50;38.75;;;;;16.89;33.42;102321.28;5057487;28;45396;-77
2022/03/22 19:37:11;;;;;;;;;53.50;41.75;;;;;16.86;33.46;102325.72;5057514;28;45607;-75
2022/03/22 19:39:46;;;;;;;;;54.25;40.75;;;;;16.82;33.23;102332.75;5055595;28;45416;-77
2022/03/22 19:42:17;;;;;;;;;57.50;41.50;;;;;16.81;33.79;102331.00;5036842;28;45500;-70
2022/03/22 19:44:45;;;;;;;;;55.50;42.75;;;;;16.79;33.97;102331.88;5038007;28;47929;-74
2022/03/22 19:47:11;;;;;;;;;50.75;40.00;;;;;16.70;34.12;102311.53;5036811;28;46745;-72
2022/03/22 19:49:51;;;;;;;;;55.50;44.00;;;;;16.78;33.89;102332.75;5050624;28;45434;-76
2022/03/22 19:52:22;;;;;;;;;54.50;40.75;;;;;16.73;34.14;102332.72;5057429;28;45500;-73
2022/03/22 19:54:54;;;;;;;;;53.50;41.50;;;;;16.70;34.15;102332.69;5055483;28;46264;-73
2022/03/22 19:57:23;;;;;;;;;61.50;45.00;;;;;16.50;34.31;102306.22;5047499;28;45517;-74
2022/03/22 19:59:52;;;;;;;;;59.00;42.50;;;;;16.58;34.35;102332.69;5046802;28;45368;-76
2022/03/22 20:02:20;;;;;;;;;53.25;41.25;;;;;16.58;34.57;102330.91;5053001;28;45557;-70
2022/03/22 20:04:47;;;;;;;;;55.75;42.75;;;;;16.47;34.48;102316.81;5054668;28;46276;-75
2022/03/22 20:07:13;;;;;;;;;52.50;42.25;;;;;16.44;34.68;102322.06;5036091;28;45433;-74
2022/03/22 20:09:38;;;;;;;;;55.00;44.00;;;;;16.49;34.89;102334.44;5050381;28;45651;-74
2022/03/22 20:12:05;;;;;;;;;56.75;44.00;;;;;16.44;34.91;102333.50;5051935;28;45491;-73
2022/03/22 20:14:31;;;;;;;;;53.00;38.75;;;;;16.33;35.03;102330.84;5057102;28;45465;-72
2022/03/22 20:17:00;;;;;;;;;56.00;39.75;;;;;16.35;35.21;102343.19;5057255;28;45482;-74
2022/03/22 20:19:36;;;;;;;;;52.00;42.00;;;;;16.27;35.20;102341.38;5056655;28;45475;-74
2022/03/22 20:22:08;;;;;;;;;53.25;41.25;;;;;16.31;35.76;102344.94;5056521;28;45588;-75
2022/03/22 20:24:37;;;;;;;;;56.75;43.00;;;;;16.32;35.60;102350.25;5055969;28;45897;-72